sensor_id;sensor_type;location;lat;lon;timestamp;pressure;altitude;pressure_sealevel;temperature;humidity
10618;BME280;5356;43.526;26.534;2023-03-22T00:01:35;98833.28;;;12.32;100.00
10618;BME280;5356;43.526;26.534;2023-03-22T00:04:01;98830.97;;;12.24;100.00
10618;BME280;5356;43.526;26.534;2023-03-22T00:06:26;98830.22;;;12.12;100.00
10618;BME280;5356;43.526;26.534;2023-03-22T00:08:52;98824.50;;;12.20;100.00
10618;BME280;5356;43.526;26.534;2023-03-22T00:11:21;98819.81;;;12.27;100.00
10618;BME280;5356;43.526;26.534;2023-03-22T00:13:48;98814.16;;;12.24;100.00
10618;BME280;5356;43.526;26.534;2023-03-22T00:16:17;98814.25;;;12.29;100.00
10618;BME280;5356;43.526;26.534;2023-03-22T00:18:43;98810.69;;;12.23;100.00
10618;BME280;5356;43.526;26.534;2023-03-22T00:21:11;98811.97;;;12.21;100.00
10618;BME280;5356;43.526;26.534;2023-03-22T00:23:37;98810.75;;;12.28;100.00
10618;BME280;5356;43.526;26.534;2023-03-22T00:26:03;98811.41;;;12.35;100.00
10618;BME280;5356;43.526;26.534;2023-03-22T00:28:29;98810.34;;;12.36;100.00
10618;BME280;5356;43.526;26.534;2023-03-22T00:30:56;98801.84;;;12.40;100.00
10618;BME280;5356;43.526;26.534;2023-03-22T00:33:23;98794.59;;;12.35;100.00
10618;BME280;5356;43.526;26.534;2023-03-22T00:35:53;98792.72;;;12.35;100.00
10618;BME280;5356;43.526;26.534;2023-03-22T00:38:20;98796.84;;;12.26;100.00
10618;BME280;5356;43.526;26.534;2023-03-22T00:40:46;98795.56;;;12.29;100.00
10618;BME280;5356;43.526;26.534;2023-03-22T00:43:12;98790.53;;;12.32;100.00
10618;BME280;5356;43.526;26.534;2023-03-22T00:45:38;98793.09;;;12.27;100.00
10618;BME280;5356;43.526;26.534;2023-03-22T00:48:14;98799.91;;;12.18;100.00
10618;BME280;5356;43.526;26.534;2023-03-22T00:50:39;98794.56;;;12.18;100.00
10618;BME280;5356;43.526;26.534;2023-03-22T00:53:05;98796.91;;;12.15;100.00
10618;BME280;5356;43.526;26.534;2023-03-22T00:55:30;98793.81;;;12.06;100.00
10618;BME280;5356;43.526;26.534;2023-03-22T00:57:56;98794.03;;;12.04;100.00
10618;BME280;5356;43.526;26.534;2023-03-22T01:00:22;98797.28;;;12.06;100.00
10618;BME280;5356;43.526;26.534;2023-03-22T01:02:48;98794.03;;;12.04;100.00
10618;BME280;5356;43.526;26.534;2023-03-22T01:05:13;98790.19;;;12.12;100.00
10618;BME280;5356;43.526;26.534;2023-03-22T01:07:41;98784.34;;;12.15;100.00
10618;BME280;5356;43.526;26.534;2023-03-22T01:10:07;98794.56;;;12.18;100.00
10618;BME280;5356;43.526;26.534;2023-03-22T01:12:33;98792.91;;;12.17;100.00
10618;BME280;5356;43.526;26.534;2023-03-22T01:14:59;98788.72;;;12.21;100.00
10618;BME280;5356;43.526;26.534;2023-03-22T01:17:24;98789.06;;;12.25;100.00
10618;BME280;5356;43.526;26.534;2023-03-22T01:19:50;98794.56;;;12.18;100.00
10618;BME280;5356;43.526;26.534;2023-03-22T01:22:15;98790.44;;;12.27;100.00
10618;BME280;5356;43.526;26.534;2023-03-22T01:24:40;98793.59;;;12.24;100.00
10618;BME280;5356;43.526;26.534;2023-03-22T01:27:06;98788.34;;;12.29;100.00
10618;BME280;5356;43.526;26.534;2023-03-22T01:29:31;98791.06;;;12.18;100.00
10618;BME280;5356;43.526;26.534;2023-03-22T01:31:57;98787.56;;;12.00;100.00
10618;BME280;5356;43.526;26.534;2023-03-22T01:34:22;98790.13;;;11.95;100.00
10618;BME280;5356;43.526;26.534;2023-03-22T01:36:48;98797.75;;;12.03;100.00
10618;BME280;5356;43.526;26.534;2023-03-22T01:39:15;98789.50;;;12.05;100.00
10618;BME280;5356;43.526;26.534;2023-03-22T01:41:41;98793.72;;;12.01;100.00
10618;BME280;5356;43.526;26.534;2023-03-22T01:46:32;98806.69;;;12.09;100.00
10618;BME280;5356;43.526;26.534;2023-03-22T01:48:59;98809.19;;;12.16;100.00
10618;BME280;5356;43.526;26.534;2023-03-22T01:51:26;98805.81;;;12.20;100.00
10618;BME280;5356;43.526;26.534;2023-03-22T01:53:57;98799.41;;;12.21;100.00
10618;BME280;5356;43.526;26.534;2023-03-22T01:56:25;98800.00;;;12.23;100.00
10618;BME280;5356;43.526;26.534;2023-03-22T01:58:53;98798.25;;;12.17;100.00
10618;BME280;5356;43.526;26.534;2023-03-22T02:01:20;98801.56;;;12.07;100.00
10618;BME280;5356;43.526;26.534;2023-03-22T02:06:17;98799.91;;;11.89;100.00
10618;BME280;5356;43.526;26.534;2023-03-22T02:08:43;98800.38;;;11.86;100.00
10618;BME280;5356;43.526;26.534;2023-03-22T02:11:14;98789.81;;;11.68;100.00
10618;BME280;5356;43.526;26.534;2023-03-22T02:19:14;98803.44;;;11.43;100.00
10618;BME280;5356;43.526;26.534;2023-03-22T02:24:44;98809.44;;;11.62;100.00
10618;BME280;5356;43.526;26.534;2023-03-22T02:30:04;98801.53;;;11.79;100.00
10618;BME280;5356;43.526;26.534;2023-03-22T02:37:56;98806.78;;;11.62;100.00
10618;BME280;5356;43.526;26.534;2023-03-22T02:40:48;98807.13;;;11.65;100.00
10618;BME280;5356;43.526;26.534;2023-03-22T02:46:26;98809.41;;;11.74;100.00
10618;BME280;5356;43.526;26.534;2023-03-22T02:52:02;98819.19;;;11.68;100.00
10618;BME280;5356;43.526;26.534;2023-03-22T02:54:37;98823.47;;;11.69;100.00
10618;BME280;5356;43.526;26.534;2023-03-22T02:57:12;98824.31;;;11.58;100.00
10618;BME280;5356;43.526;26.534;2023-03-22T02:59:41;98814.22;;;11.60;100.00
10618;BME280;5356;43.526;26.534;2023-03-22T03:02:10;98817.13;;;11.58;100.00
10618;BME280;5356;43.526;26.534;2023-03-22T03:04:43;98814.47;;;11.46;100.00
10618;BME280;5356;43.526;26.534;2023-03-22T03:07:13;98834.44;;;11.44;100.00
10618;BME280;5356;43.526;26.534;2023-03-22T03:09:40;98825.34;;;11.57;100.00
10618;BME280;5356;43.526;26.534;2023-03-22T03:12:18;98825.94;;;11.59;100.00
10618;BME280;5356;43.526;26.534;2023-03-22T03:14:44;98829.75;;;11.51;100.00
10618;BME280;5356;43.526;26.534;2023-03-22T03:17:40;98821.91;;;11.44;100.00
10618;BME280;5356;43.526;26.534;2023-03-22T03:23:03;98828.84;;;11.45;100.00
10618;BME280;5356;43.526;26.534;2023-03-22T03:28:31;98837.06;;;11.56;100.00
10618;BME280;5356;43.526;26.534;2023-03-22T03:31:09;98833.94;;;11.59;100.00
10618;BME280;5356;43.526;26.534;2023-03-22T03:33:44;98833.13;;;11.58;100.00
10618;BME280;5356;43.526;26.534;2023-03-22T03:36:15;98831.94;;;11.66;100.00
10618;BME280;5356;43.526;26.534;2023-03-22T03:38:46;98825.09;;;11.70;100.00
10618;BME280;5356;43.526;26.534;2023-03-22T03:41:17;98838.56;;;11.75;100.00
10618;BME280;5356;43.526;26.534;2023-03-22T03:43:45;98838.06;;;11.78;100.00
10618;BME280;5356;43.526;26.534;2023-03-22T03:46:12;98830.09;;;11.66;100.00
10618;BME280;5356;43.526;26.534;2023-03-22T03:48:41;98830.56;;;11.52;100.00
10618;BME280;5356;43.526;26.534;2023-03-22T03:51:07;98833.50;;;11.38;100.00
10618;BME280;5356;43.526;26.534;2023-03-22T03:53:33;98837.00;;;11.27;100.00
10618;BME280;5356;43.526;26.534;2023-03-22T03:55:58;98834.66;;;11.31;100.00
10618;BME280;5356;43.526;26.534;2023-03-22T03:58:23;98836.53;;;11.30;100.00
10618;BME280;5356;43.526;26.534;2023-03-22T04:00:49;98840.81;;;11.31;100.00
10618;BME280;5356;43.526;26.534;2023-03-22T04:03:15;98840.22;;;11.29;100.00
10618;BME280;5356;43.526;26.534;2023-03-22T04:05:41;98837.56;;;11.29;100.00
10618;BME280;5356;43.526;26.534;2023-03-22T04:08:07;98843.00;;;11.34;100.00
10618;BME280;5356;43.526;26.534;2023-03-22T04:10:33;98842.66;;;11.31;100.00
10618;BME280;5356;43.526;26.534;2023-03-22T04:12:58;98838.81;;;11.15;100.00
10618;BME280;5356;43.526;26.534;2023-03-22T04:15:24;98837.69;;;11.11;100.00
10618;BME280;5356;43.526;26.534;2023-03-22T04:17:49;98842.75;;;11.00;100.00
10618;BME280;5356;43.526;26.534;2023-03-22T04:20:16;98844.16;;;11.15;100.00
10618;BME280;5356;43.526;26.534;2023-03-22T04:22:42;98842.53;;;11.26;100.00
10618;BME280;5356;43.526;26.534;2023-03-22T04:25:10;98846.13;;;11.31;100.00
10618;BME280;5356;43.526;26.534;2023-03-22T04:27:38;98848.81;;;11.31;100.00
10618;BME280;5356;43.526;26.534;2023-03-22T04:30:06;98851.47;;;11.31;100.00
10618;BME280;5356;43.526;26.534;2023-03-22T04:32:34;98854.25;;;11.36;100.00
10618;BME280;5356;43.526;26.534;2023-03-22T04:35:00;98849.97;;;11.35;100.00
10618;BME280;5356;43.526;26.534;2023-03-22T04:37:25;98856.59;;;11.33;100.00
10618;BME280;5356;43.526;26.534;2023-03-22T04:39:56;98860.19;;;11.38;100.00
10618;BME280;5356;43.526;26.534;2023-03-22T04:42:22;98853.91;;;11.44;100.00
10618;BME280;5356;43.526;26.534;2023-03-22T04:44:47;98862.59;;;11.52;100.00
10618;BME280;5356;43.526;26.534;2023-03-22T04:47:13;98862.47;;;11.58;100.00
10618;BME280;5356;43.526;26.534;2023-03-22T04:49:38;98872.09;;;11.59;100.00
10618;BME280;5356;43.526;26.534;2023-03-22T04:52:04;98868.47;;;11.65;100.00
10618;BME280;5356;43.526;26.534;2023-03-22T04:54:29;98864.69;;;11.61;100.00
10618;BME280;5356;43.526;26.534;2023-03-22T04:56:55;98871.28;;;11.59;100.00
10618;BME280;5356;43.526;26.534;2023-03-22T04:59:20;98866.63;;;11.54;100.00
10618;BME280;5356;43.526;26.534;2023-03-22T05:01:47;98868.97;;;11.51;100.00
10618;BME280;5356;43.526;26.534;2023-03-22T05:04:13;98873.72;;;11.37;100.00
10618;BME280;5356;43.526;26.534;2023-03-22T05:06:39;98873.25;;;11.40;100.00
10618;BME280;5356;43.526;26.534;2023-03-22T05:09:04;98876.38;;;11.49;100.00
10618;BME280;5356;43.526;26.534;2023-03-22T05:11:30;98881.25;;;11.52;100.00
10618;BME280;5356;43.526;26.534;2023-03-22T05:13:56;98888.22;;;11.53;100.00
10618;BME280;5356;43.526;26.534;2023-03-22T05:16:23;98889.72;;;11.60;100.00
10618;BME280;5356;43.526;26.534;2023-03-22T05:18:48;98893.44;;;11.59;100.00
10618;BME280;5356;43.526;26.534;2023-03-22T05:21:19;98896.91;;;11.60;100.00
10618;BME280;5356;43.526;26.534;2023-03-22T05:23:47;98897.03;;;11.65;100.00
10618;BME280;5356;43.526;26.534;2023-03-22T05:26:14;98898.16;;;11.69;100.00
10618;BME280;5356;43.526;26.534;2023-03-22T05:28:41;98895.03;;;11.60;100.00
10618;BME280;5356;43.526;26.534;2023-03-22T05:31:07;98899.47;;;11.43;100.00
10618;BME280;5356;43.526;26.534;2023-03-22T05:33:33;98905.25;;;11.40;100.00
10618;BME280;5356;43.526;26.534;2023-03-22T05:35:59;98905.72;;;11.49;100.00
10618;BME280;5356;43.526;26.534;2023-03-22T05:38:24;98901.22;;;11.61;100.00
10618;BME280;5356;43.526;26.534;2023-03-22T05:40:50;98909.91;;;11.68;100.00
10618;BME280;5356;43.526;26.534;2023-03-22T05:43:16;98918.81;;;11.74;100.00
10618;BME280;5356;43.526;26.534;2023-03-22T05:45:41;98918.94;;;11.79;100.00
10618;BME280;5356;43.526;26.534;2023-03-22T05:48:06;98924.28;;;11.79;100.00
10618;BME280;5356;43.526;26.534;2023-03-22T05:50:32;98924.41;;;11.72;100.00
10618;BME280;5356;43.526;26.534;2023-03-22T05:52:58;98927.63;;;11.74;100.00
10618;BME280;5356;43.526;26.534;2023-03-22T05:55:24;98929.38;;;11.68;100.00
10618;BME280;5356;43.526;26.534;2023-03-22T05:57:50;98932.53;;;11.65;100.00
10618;BME280;5356;43.526;26.534;2023-03-22T06:00:18;98930.91;;;11.64;100.00
10618;BME280;5356;43.526;26.534;2023-03-22T06:02:46;98937.97;;;11.59;100.00
10618;BME280;5356;43.526;26.534;2023-03-22T06:05:14;98944.13;;;11.48;100.00
10618;BME280;5356;43.526;26.534;2023-03-22T06:07:41;98941.22;;;11.49;100.00
10618;BME280;5356;43.526;26.534;2023-03-22T06:10:10;98945.19;;;11.46;100.00
10618;BME280;5356;43.526;26.534;2023-03-22T06:12:36;98944.47;;;11.51;100.00
10618;BME280;5356;43.526;26.534;2023-03-22T06:15:02;98941.13;;;11.56;100.00
10618;BME280;5356;43.526;26.534;2023-03-22T06:17:29;98947.38;;;11.50;100.00
10618;BME280;5356;43.526;26.534;2023-03-22T06:19:54;98950.00;;;11.38;100.00
10618;BME280;5356;43.526;26.534;2023-03-22T06:22:20;98943.31;;;11.35;100.00
10618;BME280;5356;43.526;26.534;2023-03-22T06:24:46;98949.94;;;11.56;100.00
10618;BME280;5356;43.526;26.534;2023-03-22T06:27:12;98947.97;;;11.63;100.00
10618;BME280;5356;43.526;26.534;2023-03-22T06:29:38;98953.97;;;11.71;100.00
10618;BME280;5356;43.526;26.534;2023-03-22T06:32:03;98951.78;;;11.56;100.00
10618;BME280;5356;43.526;26.534;2023-03-22T06:34:29;98949.59;;;11.41;100.00
10618;BME280;5356;43.526;26.534;2023-03-22T06:36:55;98957.91;;;11.33;100.00
10618;BME280;5356;43.526;26.534;2023-03-22T06:39:21;98950.13;;;11.31;100.00
10618;BME280;5356;43.526;26.534;2023-03-22T06:41:46;98959.88;;;11.37;100.00
10618;BME280;5356;43.526;26.534;2023-03-22T06:44:12;98955.13;;;11.51;100.00
10618;BME280;5356;43.526;26.534;2023-03-22T06:46:38;98958.66;;;11.63;100.00
10618;BME280;5356;43.526;26.534;2023-03-22T06:49:04;98968.13;;;11.71;100.00
10618;BME280;5356;43.526;26.534;2023-03-22T06:51:30;98978.94;;;11.76;100.00
10618;BME280;5356;43.526;26.534;2023-03-22T06:53:56;98976.25;;;11.76;100.00
10618;BME280;5356;43.526;26.534;2023-03-22T06:56:21;98978.72;;;11.78;100.00
10618;BME280;5356;43.526;26.534;2023-03-22T06:58:47;98988.47;;;11.72;100.00
10618;BME280;5356;43.526;26.534;2023-03-22T07:01:13;98984.84;;;11.66;100.00
10618;BME280;5356;43.526;26.534;2023-03-22T07:03:38;98988.34;;;11.67;100.00
10618;BME280;5356;43.526;26.534;2023-03-22T07:06:06;98986.69;;;11.66;100.00
10618;BME280;5356;43.526;26.534;2023-03-22T07:08:33;98994.22;;;11.69;100.00
10618;BME280;5356;43.526;26.534;2023-03-22T07:10:59;99003.75;;;11.65;100.00
10618;BME280;5356;43.526;26.534;2023-03-22T07:13:24;98997.59;;;11.64;100.00
10618;BME280;5356;43.526;26.534;2023-03-22T07:15:54;99007.13;;;11.72;100.00
10618;BME280;5356;43.526;26.534;2023-03-22T07:18:20;99003.53;;;11.66;100.00
10618;BME280;5356;43.526;26.534;2023-03-22T07:20:46;98998.66;;;11.75;100.00
10618;BME280;5356;43.526;26.534;2023-03-22T07:23:11;98999.81;;;11.79;100.00
10618;BME280;5356;43.526;26.534;2023-03-22T07:25:37;99006.91;;;11.85;100.00
10618;BME280;5356;43.526;26.534;2023-03-22T07:28:02;99005.75;;;11.81;100.00
10618;BME280;5356;43.526;26.534;2023-03-22T07:30:28;99006.69;;;11.87;100.00
10618;BME280;5356;43.526;26.534;2023-03-22T07:32:53;99012.38;;;11.90;100.00
10618;BME280;5356;43.526;26.534;2023-03-22T07:35:19;99014.94;;;11.85;100.00
10618;BME280;5356;43.526;26.534;2023-03-22T07:37:44;99014.94;;;11.85;100.00
10618;BME280;5356;43.526;26.534;2023-03-22T07:40:13;99010.41;;;11.86;100.00
10618;BME280;5356;43.526;26.534;2023-03-22T07:42:38;99004.63;;;11.89;100.00
10618;BME280;5356;43.526;26.534;2023-03-22T07:45:04;99017.72;;;11.90;100.00
10618;BME280;5356;43.526;26.534;2023-03-22T07:47:30;99011.44;;;11.97;100.00
10618;BME280;5356;43.526;26.534;2023-03-22T07:49:56;99009.00;;;12.07;100.00
10618;BME280;5356;43.526;26.534;2023-03-22T07:52:21;99020.94;;;12.16;100.00
10618;BME280;5356;43.526;26.534;2023-03-22T07:54:47;99013.28;;;12.20;100.00
10618;BME280;5356;43.526;26.534;2023-03-22T07:57:12;99015.13;;;12.31;100.00
10618;BME280;5356;43.526;26.534;2023-03-22T07:59:38;99022.22;;;12.37;100.00
10618;BME280;5356;43.526;26.534;2023-03-22T08:02:03;99017.44;;;12.39;100.00
10618;BME280;5356;43.526;26.534;2023-03-22T08:04:28;99018.34;;;12.45;100.00
10618;BME280;5356;43.526;26.534;2023-03-22T08:06:55;99021.13;;;12.50;100.00
10618;BME280;5356;43.526;26.534;2023-03-22T08:09:26;99024.28;;;12.47;100.00
10618;BME280;5356;43.526;26.534;2023-03-22T08:11:51;99026.81;;;12.53;100.00
10618;BME280;5356;43.526;26.534;2023-03-22T08:14:17;99029.38;;;12.60;100.00
10618;BME280;5356;43.526;26.534;2023-03-22T08:16:42;99032.38;;;12.64;100.00
10618;BME280;5356;43.526;26.534;2023-03-22T08:19:11;99033.38;;;12.74;100.00
10618;BME280;5356;43.526;26.534;2023-03-22T08:21:36;99035.69;;;12.83;100.00
10618;BME280;5356;43.526;26.534;2023-03-22T08:24:03;99028.69;;;12.81;100.00
10618;BME280;5356;43.526;26.534;2023-03-22T08:26:28;99029.50;;;12.82;100.00
10618;BME280;5356;43.526;26.534;2023-03-22T08:28:54;99027.25;;;12.91;100.00
10618;BME280;5356;43.526;26.534;2023-03-22T08:31:21;99032.06;;;12.89;100.00
10618;BME280;5356;43.526;26.534;2023-03-22T08:33:47;99036.00;;;12.86;100.00
10618;BME280;5356;43.526;26.534;2023-03-22T08:36:15;99025.91;;;12.88;100.00
10618;BME280;5356;43.526;26.534;2023-03-22T08:38:41;99028.31;;;12.90;100.00
10618;BME280;5356;43.526;26.534;2023-03-22T08:41:07;99037.41;;;12.89;100.00
10618;BME280;5356;43.526;26.534;2023-03-22T08:43:32;99036.19;;;12.96;100.00
10618;BME280;5356;43.526;26.534;2023-03-22T08:45:58;99031.91;;;12.95;100.00
10618;BME280;5356;43.526;26.534;2023-03-22T08:48:23;99043.41;;;12.96;100.00
10618;BME280;5356;43.526;26.534;2023-03-22T08:50:49;99045.13;;;13.02;100.00
10618;BME280;5356;43.526;26.534;2023-03-22T08:53:15;99047.78;;;13.02;100.00
10618;BME280;5356;43.526;26.534;2023-03-22T08:55:40;99052.13;;;13.03;100.00
10618;BME280;5356;43.526;26.534;2023-03-22T08:58:10;99048.63;;;13.02;100.00
10618;BME280;5356;43.526;26.534;2023-03-22T09:00:36;99047.91;;;13.07;100.00
10618;BME280;5356;43.526;26.534;2023-03-22T09:03:03;99047.41;;;13.10;100.00
10618;BME280;5356;43.526;26.534;2023-03-22T09:05:28;99050.56;;;13.07;100.00
10618;BME280;5356;43.526;26.534;2023-03-22T09:07:54;99048.25;;;13.11;100.00
10618;BME280;5356;43.526;26.534;2023-03-22T09:10:21;99049.16;;;13.16;100.00
10618;BME280;5356;43.526;26.534;2023-03-22T09:12:47;99045.53;;;13.22;100.00
10618;BME280;5356;43.526;26.534;2023-03-22T09:15:12;99045.72;;;13.33;100.00
10618;BME280;5356;43.526;26.534;2023-03-22T09:17:38;99055.88;;;13.31;100.00
10618;BME280;5356;43.526;26.534;2023-03-22T09:20:04;99049.72;;;13.18;100.00
10618;BME280;5356;43.526;26.534;2023-03-22T09:22:29;99059.28;;;13.14;100.00
10618;BME280;5356;43.526;26.534;2023-03-22T09:24:56;99048.25;;;13.11;100.00
10618;BME280;5356;43.526;26.534;2023-03-22T09:27:21;99052.88;;;13.15;100.00
10618;BME280;5356;43.526;26.534;2023-03-22T09:29:47;99055.53;;;13.15;100.00
10618;BME280;5356;43.526;26.534;2023-03-22T09:32:15;99052.53;;;13.12;100.00
10618;BME280;5356;43.526;26.534;2023-03-22T09:34:41;99054.56;;;13.21;100.00
10618;BME280;5356;43.526;26.534;2023-03-22T09:37:06;99049.44;;;13.32;100.00
10618;BME280;5356;43.526;26.534;2023-03-22T09:39:32;99053.94;;;13.43;100.00
10618;BME280;5356;43.526;26.534;2023-03-22T09:41:59;99054.63;;;13.38;100.00
10618;BME280;5356;43.526;26.534;2023-03-22T09:44:33;99048.75;;;13.36;100.00
10618;BME280;5356;43.526;26.534;2023-03-22T09:47:03;99054.91;;;13.37;100.00
10618;BME280;5356;43.526;26.534;2023-03-22T09:49:34;99047.19;;;13.40;100.00
10618;BME280;5356;43.526;26.534;2023-03-22T09:52:04;99047.91;;;13.36;100.00
10618;BME280;5356;43.526;26.534;2023-03-22T09:54:39;99044.28;;;13.42;100.00
10618;BME280;5356;43.526;26.534;2023-03-22T09:59:43;99047.53;;;13.61;100.00
10618;BME280;5356;43.526;26.534;2023-03-22T10:05:13;99044.63;;;13.62;100.00
10618;BME280;5356;43.526;26.534;2023-03-22T10:10:22;99049.56;;;13.87;100.00
10618;BME280;5356;43.526;26.534;2023-03-22T10:15:54;99048.09;;;13.80;100.00
10618;BME280;5356;43.526;26.534;2023-03-22T10:18:40;99050.38;;;13.88;100.00
10618;BME280;5356;43.526;26.534;2023-03-22T10:21:11;99054.97;;;13.92;100.00
10618;BME280;5356;43.526;26.534;2023-03-22T10:23:45;99058.53;;;13.98;100.00
10618;BME280;5356;43.526;26.534;2023-03-22T10:26:36;99048.09;;;13.97;100.00
10618;BME280;5356;43.526;26.534;2023-03-22T10:29:10;99047.41;;;14.06;100.00
10618;BME280;5356;43.526;26.534;2023-03-22T10:31:38;99046.22;;;13.97;100.00
10618;BME280;5356;43.526;26.534;2023-03-22T10:34:10;99050.47;;;13.93;100.00
10618;BME280;5356;43.526;26.534;2023-03-22T10:36:40;99048.31;;;13.95;100.00
10618;BME280;5356;43.526;26.534;2023-03-22T10:39:34;99046.91;;;13.87;100.00
10618;BME280;5356;43.526;26.534;2023-03-22T10:42:03;99050.38;;;13.71;100.00
10618;BME280;5356;43.526;26.534;2023-03-22T10:44:31;99050.28;;;13.66;100.00
10618;BME280;5356;43.526;26.534;2023-03-22T10:47:02;99052.56;;;13.57;100.00
10618;BME280;5356;43.526;26.534;2023-03-22T10:49:37;99041.19;;;13.50;100.00
10618;BME280;5356;43.526;26.534;2023-03-22T10:53:11;99040.38;;;13.50;100.00
10618;BME280;5356;43.526;26.534;2023-03-22T10:55:12;99043.72;;;13.57;100.00
10618;BME280;5356;43.526;26.534;2023-03-22T10:57:38;99044.63;;;13.62;100.00
10618;BME280;5356;43.526;26.534;2023-03-22T11:00:06;99044.13;;;13.65;100.00
10618;BME280;5356;43.526;26.534;2023-03-22T11:02:51;99043.66;;;13.68;100.00
10618;BME280;5356;43.526;26.534;2023-03-22T11:05:28;99046.94;;;13.76;100.00
10618;BME280;5356;43.526;26.534;2023-03-22T11:07:56;99043.25;;;13.60;100.00
10618;BME280;5356;43.526;26.534;2023-03-22T11:10:31;99035.78;;;13.45;100.00
10618;BME280;5356;43.526;26.534;2023-03-22T11:15:34;99030.97;;;13.47;100.00
10618;BME280;5356;43.526;26.534;2023-03-22T11:18:04;99033.91;;;13.45;100.00
10618;BME280;5356;43.526;26.534;2023-03-22T11:20:31;99036.09;;;13.48;100.00
10618;BME280;5356;43.526;26.534;2023-03-22T11:23:00;99032.53;;;13.43;100.00
10618;BME280;5356;43.526;26.534;2023-03-22T11:25:29;99034.53;;;13.53;100.00
10618;BME280;5356;43.526;26.534;2023-03-22T11:30:31;99026.47;;;13.64;100.00
10618;BME280;5356;43.526;26.534;2023-03-22T11:33:20;99028.06;;;13.65;100.00
10618;BME280;5356;43.526;26.534;2023-03-22T11:35:52;99029.53;;;13.73;100.00
10618;BME280;5356;43.526;26.534;2023-03-22T11:38:38;99028.38;;;13.69;100.00
10618;BME280;5356;43.526;26.534;2023-03-22T11:43:38;99016.56;;;13.48;100.00
10618;BME280;5356;43.526;26.534;2023-03-22T11:46:06;99020.84;;;13.49;100.00
10618;BME280;5356;43.526;26.534;2023-03-22T11:48:33;99015.19;;;13.62;100.00
10618;BME280;5356;43.526;26.534;2023-03-22T11:51:08;99016.56;;;13.65;100.00
10618;BME280;5356;43.526;26.534;2023-03-22T11:53:37;99011.53;;;13.68;100.00
10618;BME280;5356;43.526;26.534;2023-03-22T11:56:05;99010.84;;;13.61;100.00
10618;BME280;5356;43.526;26.534;2023-03-22T11:58:53;99016.06;;;13.68;100.00
10618;BME280;5356;43.526;26.534;2023-03-22T12:01:48;99012.97;;;13.76;100.00
10618;BME280;5356;43.526;26.534;2023-03-22T12:04:23;99012.59;;;13.67;100.00
10618;BME280;5356;43.526;26.534;2023-03-22T12:06:54;99023.44;;;13.78;100.00
10618;BME280;5356;43.526;26.534;2023-03-22T12:12:06;99021.75;;;13.72;100.00
10618;BME280;5356;43.526;26.534;2023-03-22T12:14:51;99015.09;;;13.74;100.00
10618;BME280;5356;43.526;26.534;2023-03-22T12:20:53;99014.75;;;13.37;100.00
10618;BME280;5356;43.526;26.534;2023-03-22T12:22:51;99016.28;;;13.50;100.00
10618;BME280;5356;43.526;26.534;2023-03-22T12:25:30;99015.66;;;13.59;100.00
10618;BME280;5356;43.526;26.534;2023-03-22T12:28:01;99014.19;;;13.68;100.00
10618;BME280;5356;43.526;26.534;2023-03-22T12:30:57;99013.88;;;13.65;100.00
10618;BME280;5356;43.526;26.534;2023-03-22T12:33:29;99007.22;;;13.51;100.00
10618;BME280;5356;43.526;26.534;2023-03-22T12:36:04;99009.50;;;13.59;100.00
10618;BME280;5356;43.526;26.534;2023-03-22T12:41:06;99010.84;;;13.44;100.00
10618;BME280;5356;43.526;26.534;2023-03-22T12:43:48;99012.50;;;13.45;100.00
10618;BME280;5356;43.526;26.534;2023-03-22T12:46:22;99008.28;;;13.50;100.00
10618;BME280;5356;43.526;26.534;2023-03-22T12:51:27;99018.16;;;13.49;100.00
10618;BME280;5356;43.526;26.534;2023-03-22T12:53:55;99012.59;;;13.51;100.00
10618;BME280;5356;43.526;26.534;2023-03-22T12:56:42;99018.97;;;13.50;100.00
10618;BME280;5356;43.526;26.534;2023-03-22T12:59:16;99018.97;;;13.50;100.00
10618;BME280;5356;43.526;26.534;2023-03-22T13:07:09;99020.63;;;13.51;100.00
10618;BME280;5356;43.526;26.534;2023-03-22T13:32:47;99006.38;;;13.33;100.00
10618;BME280;5356;43.526;26.534;2023-03-22T13:35:25;99015.03;;;13.23;100.00
10618;BME280;5356;43.526;26.534;2023-03-22T13:37:54;98997.38;;;13.22;100.00
10618;BME280;5356;43.526;26.534;2023-03-22T13:40:34;98995.13;;;13.31;100.00
10618;BME280;5356;43.526;26.534;2023-03-22T13:48:49;99004.16;;;13.42;100.00
10618;BME280;5356;43.526;26.534;2023-03-22T13:56:48;98995.53;;;13.40;100.00
10618;BME280;5356;43.526;26.534;2023-03-22T14:01:52;98990.28;;;13.45;100.00
10618;BME280;5356;43.526;26.534;2023-03-22T14:04:24;98991.31;;;13.44;100.00
10618;BME280;5356;43.526;26.534;2023-03-22T14:06:59;98989.03;;;13.53;100.00
10618;BME280;5356;43.526;26.534;2023-03-22T14:10:04;98979.22;;;13.58;100.00
10618;BME280;5356;43.526;26.534;2023-03-22T14:15:17;98987.84;;;13.60;100.00
10618;BME280;5356;43.526;26.534;2023-03-22T14:17:47;98989.03;;;13.53;100.00
10618;BME280;5356;43.526;26.534;2023-03-22T14:20:20;98979.00;;;13.60;100.00
10618;BME280;5356;43.526;26.534;2023-03-22T14:22:58;98988.63;;;13.61;100.00
10618;BME280;5356;43.526;26.534;2023-03-22T14:25:29;98985.66;;;13.57;100.00
10618;BME280;5356;43.526;26.534;2023-03-22T14:27:56;98979.88;;;13.65;100.00
10618;BME280;5356;43.526;26.534;2023-03-22T14:30:34;98986.53;;;13.63;100.00
10618;BME280;5356;43.526;26.534;2023-03-22T14:33:13;98988.00;;;13.70;100.00
10618;BME280;5356;43.526;26.534;2023-03-22T14:36:00;98988.53;;;13.73;100.00
10618;BME280;5356;43.526;26.534;2023-03-22T14:38:30;98982.78;;;13.64;100.00
10618;BME280;5356;43.526;26.534;2023-03-22T14:41:12;98991.81;;;13.58;100.00
10618;BME280;5356;43.526;26.534;2023-03-22T14:43:39;98990.91;;;13.69;100.00
10618;BME280;5356;43.526;26.534;2023-03-22T14:46:19;98985.25;;;13.65;100.00
10618;BME280;5356;43.526;26.534;2023-03-22T14:48:54;98990.19;;;13.74;100.00